Time;durP1;ratioP1;P1;durP2;ratioP2;P2;SDS_P1;SDS_P2;PMS_P1;PMS_P2;Temp;Humidity;BMP_temperature;BMP_pressure;BME280_temperature;BME280_humidity;BME280_pressure;Samples;Min_cycle;Max_cycle;Signal;HPM_P1;HPM_P2
2023/10/04 00:00:14;;;;;;;6.97;2.05;;;17.60;98.90;;;;;;5016286;28;20534;-66
2023/10/04 00:02:41;;;;;;;9.68;2.75;;;17.60;98.90;;;;;;5030169;28;20026;-68
2023/10/04 00:05:08;;;;;;;7.65;2.03;;;17.70;98.90;;;;;;5015875;28;20042;-69
2023/10/04 00:07:33;;;;;;;6.10;2.00;;;17.70;98.90;;;;;;5014794;28;20091;-67
2023/10/04 00:10:04;;;;;;;9.98;2.47;;;17.60;98.80;;;;;;5016189;28;20467;-68
2023/10/04 00:12:30;;;;;;;11.02;2.50;;;17.70;98.90;;;;;;5016191;28;20033;-70
2023/10/04 00:14:56;;;;;;;9.98;2.17;;;17.60;98.90;;;;;;5015967;28;20030;-70
2023/10/04 00:17:22;;;;;;;8.18;1.90;;;17.60;98.90;;;;;;5016068;28;20025;-66
2023/10/04 00:19:47;;;;;;;8.27;1.95;;;17.50;99.20;;;;;;5015059;28;20613;-66
2023/10/04 00:22:13;;;;;;;8.00;1.85;;;17.50;99.00;;;;;;5015940;28;20423;-66
2023/10/04 00:24:39;;;;;;;8.32;2.15;;;17.60;98.90;;;;;;5015752;28;20080;-65
2023/10/04 00:27:05;;;;;;;11.25;2.67;;;17.50;98.90;;;;;;5015973;28;20379;-66
2023/10/04 00:29:30;;;;;;;9.85;2.25;;;17.50;99.00;;;;;;5015513;28;20088;-66
2023/10/04 00:31:56;;;;;;;10.70;2.53;;;17.50;99.00;;;;;;5015884;28;20026;-68
2023/10/04 00:34:22;;;;;;;8.23;1.85;;;17.40;99.00;;;;;;5015250;28;20038;-66
2023/10/04 00:36:48;;;;;;;9.05;2.92;;;17.40;99.00;;;;;;5015648;28;20105;-69
2023/10/04 00:39:14;;;;;;;8.32;2.30;;;17.50;99.00;;;;;;5015331;28;20438;-69
2023/10/04 00:41:40;;;;;;;7.82;2.25;;;17.50;99.00;;;;;;5015543;28;20100;-68
2023/10/04 00:44:07;;;;;;;9.80;2.25;;;17.50;98.90;;;;;;5015528;28;20021;-66
2023/10/04 00:46:37;;;;;;;7.78;2.50;;;17.50;99.00;;;;;;5015560;28;20025;-68
2023/10/04 00:49:04;;;;;;;7.38;2.00;;;17.40;99.00;;;;;;5015115;28;20046;-68
2023/10/04 00:51:35;;;;;;;13.95;2.70;;;17.40;99.10;;;;;;5015261;28;20022;-67
2023/10/04 00:54:09;;;;;;;10.65;2.28;;;17.40;99.00;;;;;;5015408;28;20050;-67
2023/10/04 00:56:38;;;;;;;9.73;1.90;;;17.40;99.00;;;;;;5015477;28;20054;-67
2023/10/04 00:59:04;;;;;;;4.80;2.40;;;17.30;99.00;;;;;;5015137;28;20100;-68
2023/10/04 01:01:33;;;;;;;10.73;2.05;;;17.40;99.00;;;;;;5015047;28;20117;-69
2023/10/04 01:04:02;;;;;;;7.20;2.22;;;17.40;99.00;;;;;;5014716;28;20069;-68
2023/10/04 01:06:30;;;;;;;7.93;2.20;;;17.40;99.00;;;;;;5015060;28;20057;-67
2023/10/04 01:08:56;;;;;;;9.38;2.30;;;17.40;99.30;;;;;;5013736;28;20410;-68
2023/10/04 01:11:22;;;;;;;11.77;2.30;;;17.30;99.00;;;;;;5015114;28;20029;-67
2023/10/04 01:13:48;;;;;;;8.02;2.22;;;17.40;99.10;;;;;;5014971;28;20383;-69
2023/10/04 01:16:15;;;;;;;6.20;1.65;;;17.30;99.10;;;;;;5014736;28;20033;-66
2023/10/04 01:18:42;;;;;;;12.52;2.65;;;17.30;99.00;;;;;;5014714;28;20084;-67
2023/10/04 01:21:09;;;;;;;8.63;2.63;;;17.30;99.00;;;;;;5015114;28;20033;-66
2023/10/04 01:23:34;;;;;;;7.95;2.40;;;17.40;99.00;;;;;;5014893;28;20406;-66
2023/10/04 01:26:00;;;;;;;9.45;2.45;;;17.30;99.00;;;;;;5014770;28;20021;-66
2023/10/04 01:28:27;;;;;;;7.07;2.05;;;17.30;99.00;;;;;;5015052;28;20018;-67
2023/10/04 01:30:53;;;;;;;9.43;2.60;;;17.30;99.10;;;;;;5013733;28;20057;-66
2023/10/04 01:33:19;;;;;;;9.48;2.40;;;17.30;99.10;;;;;;5014449;28;20028;-66
2023/10/04 01:35:55;;;;;;;8.35;2.13;;;17.30;99.10;;;;;;5014668;28;20037;-66
2023/10/04 01:38:25;;;;;;;13.30;2.97;;;17.30;99.10;;;;;;5014427;28;20553;-66
2023/10/04 01:40:52;;;;;;;8.18;2.47;;;17.30;99.10;;;;;;5014425;28;20041;-66
2023/10/04 01:43:24;;;;;;;10.25;2.38;;;17.30;99.10;;;;;;5014542;28;20456;-67
2023/10/04 01:45:58;;;;;;;7.78;2.95;;;17.30;99.00;;;;;;5013995;28;20025;-65
2023/10/04 01:48:26;;;;;;;10.05;2.15;;;17.20;99.10;;;;;;5014236;28;20093;-65
2023/10/04 01:50:52;;;;;;;7.95;2.65;;;17.30;99.10;;;;;;5014267;28;20114;-66
2023/10/04 01:53:24;;;;;;;6.85;1.80;;;17.20;99.00;;;;;;5014342;28;20029;-66
2023/10/04 01:55:49;;;;;;;10.23;2.97;;;17.20;99.10;;;;;;5014036;28;20483;-66
2023/10/04 01:58:15;;;;;;;10.80;2.40;;;17.20;99.00;;;;;;5014227;28;20029;-66
2023/10/04 02:00:42;;;;;;;11.60;3.53;;;17.20;99.00;;;;;;5013641;28;20026;-66
2023/10/04 02:03:09;;;;;;;11.30;2.65;;;17.20;99.10;;;;;;5014081;28;20025;-65
2023/10/04 02:05:37;;;;;;;8.20;2.60;;;17.20;99.10;;;;;;5013776;28;20041;-66
2023/10/04 02:08:12;;;;;;;10.85;2.83;;;17.10;99.10;;;;;;5014089;28;20036;-66
2023/10/04 02:10:41;;;;;;;10.77;2.70;;;17.20;99.00;;;;;;5013824;28;20030;-65
2023/10/04 02:13:08;;;;;;;8.25;2.45;;;17.10;99.10;;;;;;5014069;28;20029;-66
2023/10/04 02:15:35;;;;;;;8.55;2.22;;;17.20;99.30;;;;;;5013532;28;20117;-66
2023/10/04 02:18:01;;;;;;;9.35;2.70;;;17.20;99.10;;;;;;5013868;28;20029;-66
2023/10/04 02:20:31;;;;;;;7.35;2.40;;;17.10;99.10;;;;;;5013564;28;20053;-66
2023/10/04 02:23:00;;;;;;;8.70;2.33;;;17.10;99.40;;;;;;5013791;28;20562;-66
2023/10/04 02:25:26;;;;;;;10.32;2.60;;;17.10;99.10;;;;;;5013766;28;20124;-66
2023/10/04 02:27:52;;;;;;;7.47;2.33;;;17.10;99.20;;;;;;5013647;28;20487;-66
2023/10/04 02:30:23;;;;;;;10.48;2.97;;;17.10;99.20;;;;;;5013319;28;20026;-66
2023/10/04 02:32:50;;;;;;;10.32;3.30;;;17.00;99.30;;;;;;5013501;28;20014;-65
2023/10/04 02:35:27;;;;;;;10.40;2.42;;;17.00;99.30;;;;;;5013911;28;20057;-65
2023/10/04 02:37:54;;;;;;;10.75;2.67;;;17.00;99.20;;;;;;5013393;28;20115;-66
2023/10/04 02:40:22;;;;;;;8.75;2.17;;;16.90;99.30;;;;;;5013564;28;20022;-66
2023/10/04 02:42:48;;;;;;;8.75;3.10;;;17.00;99.30;;;;;;5013538;28;20385;-66
2023/10/04 02:45:21;;;;;;;13.02;2.90;;;17.00;99.30;;;;;;5013356;28;20390;-66
2023/10/04 02:47:48;;;;;;;11.52;2.90;;;16.90;99.40;;;;;;5013468;28;20014;-65
2023/10/04 02:50:15;;;;;;;11.60;2.92;;;16.90;99.40;;;;;;5013401;28;20026;-65
2023/10/04 02:52:41;;;;;;;8.70;2.63;;;16.90;99.40;;;;;;5013484;28;20060;-66
2023/10/04 02:55:06;;;;;;;9.98;2.72;;;16.80;99.50;;;;;;5013458;28;20112;-66
2023/10/04 02:57:32;;;;;;;8.90;2.55;;;16.80;99.50;;;;;;5013353;28;20467;-67
2023/10/04 02:59:58;;;;;;;11.25;2.80;;;16.80;99.50;;;;;;5011572;28;20510;-67
2023/10/04 03:02:24;;;;;;;11.43;2.72;;;16.70;99.60;;;;;;5013340;28;20097;-66
2023/10/04 03:04:51;;;;;;;8.52;2.75;;;16.70;99.60;;;;;;5013013;28;20072;-66
2023/10/04 03:07:17;;;;;;;9.63;2.80;;;16.70;99.60;;;;;;5013255;28;20030;-66
2023/10/04 03:09:43;;;;;;;8.43;2.40;;;16.70;99.60;;;;;;5013335;28;20080;-66
2023/10/04 03:12:12;;;;;;;9.15;2.50;;;16.70;99.50;;;;;;5013245;28;20033;-66
2023/10/04 03:14:41;;;;;;;10.13;3.15;;;16.60;99.60;;;;;;5013185;28;20022;-66
2023/10/04 03:17:15;;;;;;;9.98;3.55;;;16.70;99.50;;;;;;5013048;28;20030;-66
2023/10/04 03:19:42;;;;;;;10.73;2.97;;;16.60;99.60;;;;;;5013133;28;20064;-66
2023/10/04 03:22:08;;;;;;;8.55;2.60;;;16.60;99.60;;;;;;5013100;28;20061;-65
2023/10/04 03:24:34;;;;;;;12.32;2.80;;;16.60;99.60;;;;;;5013304;28;20030;-66
2023/10/04 03:27:00;;;;;;;11.05;2.92;;;16.60;99.70;;;;;;5012975;28;20034;-65
2023/10/04 03:29:28;;;;;;;13.98;3.00;;;16.60;99.60;;;;;;5012770;28;20468;-66
2023/10/04 03:31:53;;;;;;;10.57;2.80;;;16.60;99.60;;;;;;5012787;28;20483;-66
2023/10/04 03:34:22;;;;;;;8.82;2.67;;;16.60;99.90;;;;;;5012981;28;20064;-68
2023/10/04 03:36:48;;;;;;;9.95;2.50;;;16.50;99.70;;;;;;5012964;28;20065;-65
2023/10/04 03:39:16;;;;;;;7.78;2.80;;;16.50;99.70;;;;;;5012892;28;20053;-65
2023/10/04 03:41:42;;;;;;;10.00;2.92;;;16.40;99.80;;;;;;5012855;28;20026;-66
2023/10/04 03:44:08;;;;;;;10.48;3.38;;;16.40;99.70;;;;;;5012827;28;20025;-65
2023/10/04 03:46:33;;;;;;;8.18;2.47;;;16.40;99.80;;;;;;5012780;28;20026;-66
2023/10/04 03:48:59;;;;;;;10.45;2.90;;;16.40;99.80;;;;;;5012888;28;20037;-65
2023/10/04 03:51:26;;;;;;;10.05;3.40;;;16.40;99.90;;;;;;5012829;28;20488;-70
2023/10/04 03:53:53;;;;;;;7.63;3.08;;;16.40;99.80;;;;;;5014232;28;20013;-66
2023/10/04 03:56:21;;;;;;;9.65;3.30;;;16.40;99.70;;;;;;5016276;28;20105;-65
2023/10/04 03:58:48;;;;;;;10.65;3.10;;;16.40;99.80;;;;;;5016275;28;20010;-65
2023/10/04 04:01:14;;;;;;;11.50;3.20;;;16.40;99.70;;;;;;5014988;28;20514;-66
2023/10/04 04:03:40;;;;;;;9.48;3.00;;;16.40;99.70;;;;;;5016431;28;20101;-68
2023/10/04 04:06:06;;;;;;;12.43;3.03;;;16.40;99.70;;;;;;5016146;28;20040;-67
2023/10/04 04:08:33;;;;;;;8.48;2.58;;;16.30;99.80;;;;;;5016180;28;20109;-68
2023/10/04 04:11:01;;;;;;;7.72;2.63;;;16.30;99.80;;;;;;5015848;28;20144;-67
2023/10/04 04:13:27;;;;;;;12.23;2.67;;;16.30;99.80;;;;;;5015910;28;20026;-67
2023/10/04 04:15:52;;;;;;;11.02;2.95;;;16.30;99.70;;;;;;5016076;28;20140;-67
2023/10/04 04:18:21;;;;;;;7.53;2.67;;;16.30;99.80;;;;;;5016030;28;20022;-67
2023/10/04 04:20:48;;;;;;;7.53;2.60;;;16.30;99.70;;;;;;5016114;28;20140;-67
2023/10/04 04:23:16;;;;;;;8.30;2.83;;;16.30;99.90;;;;;;5015862;28;20551;-69
2023/10/04 04:25:43;;;;;;;8.38;2.53;;;16.20;99.80;;;;;;5015699;28;20052;-68
2023/10/04 04:28:09;;;;;;;10.02;3.10;;;16.20;99.90;;;;;;5015684;28;20022;-67
2023/10/04 04:30:35;;;;;;;10.95;3.08;;;16.10;99.90;;;;;;5016067;28;20028;-68
2023/10/04 04:33:07;;;;;;;14.50;3.20;;;16.10;99.90;;;;;;5015821;28;20026;-68
2023/10/04 04:38:24;;;;;;;13.07;2.97;;;16.10;99.90;;;;;;5015825;28;20046;-68
2023/10/04 04:40:52;;;;;;;8.23;2.63;;;16.10;99.90;;;;;;5015201;28;20044;-65
2023/10/04 04:45:51;;;;;;;12.30;3.15;;;16.50;99.90;;;;;;5015609;28;20487;-67
2023/10/04 04:48:28;;;;;;;8.55;2.75;;;16.60;99.90;;;;;;5015594;28;20117;-68
2023/10/04 04:50:57;;;;;;;10.48;2.55;;;16.60;99.90;;;;;;5015424;28;20022;-68
2023/10/04 04:53:27;;;;;;;12.98;3.35;;;16.70;99.90;;;;;;5015282;28;20014;-69
2023/10/04 04:55:54;;;;;;;8.77;2.88;;;16.70;99.90;;;;;;5014876;28;20033;-70
2023/10/04 04:58:22;;;;;;;7.57;2.63;;;16.80;99.90;;;;;;5015311;28;20065;-69
2023/10/04 05:00:55;;;;;;;7.30;2.38;;;16.80;99.90;;;;;;5014822;28;20092;-70
2023/10/04 05:03:21;;;;;;;9.95;2.85;;;16.90;99.90;;;;;;5014806;28;20041;-69
2023/10/04 05:05:50;;;;;;;6.55;2.20;;;16.90;99.90;;;;;;5013681;28;20397;-67
2023/10/04 05:08:18;;;;;;;9.20;2.95;;;16.90;99.90;;;;;;5015050;28;20030;-65
2023/10/04 05:10:45;;;;;;;12.00;3.17;;;16.90;99.90;;;;;;5005122;28;20038;-65
2023/10/04 05:13:16;;;;;;;8.52;3.17;;;17.00;99.90;;;;;;5007045;28;20021;-66
2023/10/04 05:15:42;;;;;;;10.00;2.58;;;17.00;99.90;;;;;;5002649;28;20033;-64
2023/10/04 05:18:15;;;;;;;10.57;3.17;;;17.00;99.90;;;;;;5011355;28;20026;-63
2023/10/04 05:20:49;;;;;;;8.25;3.03;;;17.00;99.90;;;;;;5012957;28;20105;-64
2023/10/04 05:23:14;;;;;;;7.82;2.60;;;17.00;99.90;;;;;;5010936;28;20029;-65
2023/10/04 05:25:41;;;;;;;10.00;2.65;;;17.10;99.80;;;;;;5004649;28;20038;-66
2023/10/04 05:28:14;;;;;;;10.88;3.08;;;17.00;99.90;;;;;;4995460;28;20033;-68
2023/10/04 05:30:42;;;;;;;11.32;3.22;;;17.00;99.90;;;;;;5014001;28;20495;-67
2023/10/04 05:33:08;;;;;;;10.25;3.08;;;17.00;99.90;;;;;;5009321;28;20519;-68
2023/10/04 05:35:37;;;;;;;8.90;2.67;;;17.00;99.90;;;;;;5008722;28;20105;-66
2023/10/04 05:38:07;;;;;;;8.85;2.63;;;17.00;99.90;;;;;;5002707;28;20026;-69
2023/10/04 05:40:38;;;;;;;11.15;2.85;;;16.90;99.90;;;;;;5004859;28;20038;-65
2023/10/04 05:43:04;;;;;;;15.82;2.88;;;16.90;99.90;;;;;;5003529;28;20498;-67
2023/10/04 05:45:29;;;;;;;11.82;3.47;;;16.80;99.90;;;;;;5014174;28;20026;-66
2023/10/04 05:47:56;;;;;;;11.10;2.78;;;16.80;99.80;;;;;;5011482;28;20026;-64
2023/10/04 05:50:21;;;;;;;11.75;2.88;;;16.70;99.40;;;;;;5000223;28;20122;-68
2023/10/04 05:52:48;;;;;;;8.52;2.85;;;16.60;99.60;;;;;;5000050;28;20097;-66
2023/10/04 05:55:16;;;;;;;8.15;2.55;;;16.60;99.50;;;;;;4999036;28;20033;-68
2023/10/04 05:57:45;;;;;;;8.07;2.92;;;16.50;99.60;;;;;;5007988;28;20419;-68
2023/10/04 06:02:58;;;;;;;8.15;2.65;;;16.30;99.70;;;;;;5004251;28;20039;-67
2023/10/04 06:05:27;;;;;;;11.75;3.28;;;16.30;99.80;;;;;;5001785;28;20042;-69
2023/10/04 06:07:56;;;;;;;13.88;4.00;;;16.30;99.80;;;;;;5006119;28;20022;-67
2023/10/04 06:10:25;;;;;;;10.32;2.70;;;16.30;99.80;;;;;;5010015;28;20028;-67
2023/10/04 06:12:53;;;;;;;10.68;2.85;;;16.30;99.80;;;;;;5002330;28;20049;-68
2023/10/04 06:15:20;;;;;;;9.68;3.47;;;16.20;99.90;;;;;;4999092;28;20026;-66
2023/10/04 06:17:50;;;;;;;8.63;3.17;;;16.20;99.90;;;;;;5003914;28;20549;-66
2023/10/04 06:22:54;;;;;;;11.52;3.10;;;16.10;99.90;;;;;;5004218;28;20484;-66
2023/10/04 06:25:22;;;;;;;11.02;3.00;;;16.10;99.90;;;;;;4999634;28;20030;-66
2023/10/04 06:27:52;;;;;;;10.13;3.50;;;16.10;99.90;;;;;;5010015;28;20030;-66
2023/10/04 06:30:23;;;;;;;13.40;3.40;;;16.10;99.90;;;;;;5001048;28;20084;-70
2023/10/04 06:32:55;;;;;;;9.73;3.47;;;16.10;99.90;;;;;;5003490;28;20479;-70
2023/10/04 06:35:24;;;;;;;;;;;16.00;99.90;;;;;;4997031;28;20041;-68
2023/10/04 06:37:57;;;;;;;8.52;2.92;;;16.00;99.90;;;;;;4999891;28;19917;-68
2023/10/04 06:40:24;;;;;;;11.82;3.83;;;15.90;99.90;;;;;;5007791;28;20513;-70
2023/10/04 06:42:51;;;;;;;12.57;2.75;;;15.90;99.90;;;;;;5003528;28;20030;-68
2023/10/04 06:45:20;;;;;;;13.43;3.20;;;15.90;99.90;;;;;;4993584;28;20038;-66
2023/10/04 06:47:47;;;;;;;14.82;3.72;;;16.00;99.90;;;;;;4996609;28;20475;-67
2023/10/04 06:50:14;;;;;;;9.38;3.08;;;16.10;99.90;;;;;;4995211;28;20026;-67
2023/10/04 06:52:43;;;;;;;15.48;4.40;;;16.20;99.90;;;;;;5003443;28;20022;-69
2023/10/04 06:55:11;;;;;;;13.07;3.58;;;16.20;99.90;;;;;;4993005;28;20057;-66
2023/10/04 06:57:37;;;;;;;17.20;4.10;;;16.20;99.90;;;;;;4997844;28;20025;-67
2023/10/04 07:00:12;;;;;;;10.32;3.50;;;16.30;99.90;;;;;;5009252;28;20084;-66
2023/10/04 07:02:53;;;;;;;10.77;3.58;;;16.30;99.90;;;;;;5006324;28;20061;-67
2023/10/04 07:05:21;;;;;;;11.93;3.25;;;16.30;99.90;;;;;;4993055;28;20031;-67
2023/10/04 07:07:48;;;;;;;13.55;3.30;;;16.30;99.90;;;;;;5011983;28;20091;-66
2023/10/04 07:10:15;;;;;;;11.07;3.03;;;16.40;99.90;;;;;;5012534;28;20026;-66
2023/10/04 07:12:45;;;;;;;10.05;3.63;;;16.40;99.90;;;;;;5012019;28;20511;-66
2023/10/04 07:15:12;;;;;;;14.90;3.53;;;16.40;99.90;;;;;;5013074;28;20054;-66
2023/10/04 07:17:39;;;;;;;8.00;2.72;;;16.40;99.90;;;;;;5006009;28;20034;-66
2023/10/04 07:20:15;;;;;;;8.38;2.85;;;16.50;99.90;;;;;;4999434;28;20117;-67
2023/10/04 07:22:45;;;;;;;10.18;2.65;;;16.50;99.90;;;;;;4996986;28;20471;-67
2023/10/04 07:25:12;;;;;;;8.75;3.22;;;16.60;99.90;;;;;;5010193;28;20050;-66
2023/10/04 07:27:43;;;;;;;11.55;3.70;;;16.50;99.90;;;;;;5032873;28;20112;-65
2023/10/04 07:30:12;;;;;;;13.02;3.63;;;16.60;99.90;;;;;;5026855;28;20026;-66
2023/10/04 07:32:46;;;;;;;12.38;3.60;;;16.60;99.90;;;;;;5016554;28;20029;-66
2023/10/04 07:35:18;;;;;;;10.80;3.15;;;16.70;99.90;;;;;;5004626;28;20046;-66
2023/10/04 07:37:45;;;;;;;9.88;3.53;;;16.70;99.90;;;;;;4998654;28;20031;-66
2023/10/04 07:40:14;;;;;;;13.10;4.38;;;16.70;99.90;;;;;;5001705;28;20153;-66
2023/10/04 07:42:42;;;;;;;8.63;2.97;;;16.70;99.90;;;;;;5019986;28;20032;-66
2023/10/04 07:45:10;;;;;;;10.13;3.25;;;16.80;99.90;;;;;;5013621;28;20014;-66
2023/10/04 07:47:43;;;;;;;12.38;3.13;;;16.80;99.90;;;;;;5003117;28;20030;-67
2023/10/04 07:50:13;;;;;;;9.57;3.22;;;16.80;99.90;;;;;;5005515;28;20483;-68
2023/10/04 07:52:40;;;;;;;7.88;2.75;;;16.90;99.90;;;;;;5000821;28;20506;-67
2023/10/04 07:55:14;;;;;;;6.30;2.50;;;16.90;99.90;;;;;;4998432;28;20030;-67
2023/10/04 07:57:43;;;;;;;5.65;2.50;;;16.90;99.90;;;;;;5015642;28;20018;-67
2023/10/04 08:00:13;;;;;;;8.77;3.40;;;16.90;99.90;;;;;;5015742;28;20048;-69
2023/10/04 08:02:45;;;;;;;10.15;3.10;;;17.00;99.90;;;;;;5015243;28;20041;-67
2023/10/04 08:05:13;;;;;;;9.25;2.80;;;17.00;99.90;;;;;;5005343;28;20479;-67
2023/10/04 08:07:38;;;;;;;8.43;2.20;;;17.00;99.90;;;;;;4996199;28;20029;-67
2023/10/04 08:10:05;;;;;;;11.73;3.15;;;17.00;99.90;;;;;;5002639;28;20029;-66
2023/10/04 08:12:30;;;;;;;8.35;2.45;;;17.10;99.90;;;;;;5003675;28;20034;-66
2023/10/04 08:15:00;;;;;;;7.03;2.67;;;17.10;99.90;;;;;;4997999;28;20026;-66
2023/10/04 08:17:26;;;;;;;9.77;3.22;;;17.10;99.90;;;;;;5013169;28;20026;-66
2023/10/04 08:19:52;;;;;;;11.07;3.47;;;17.10;99.90;;;;;;4999623;28;20053;-66
2023/10/04 08:22:17;;;;;;;13.68;4.43;;;17.10;99.90;;;;;;5014107;28;20108;-66
2023/10/04 08:24:46;;;;;;;15.77;4.22;;;17.10;99.90;;;;;;5014240;28;20068;-66
2023/10/04 08:27:12;;;;;;;13.00;3.30;;;17.20;99.90;;;;;;5010427;28;20034;-66
2023/10/04 08:29:37;;;;;;;12.00;3.30;;;17.20;99.90;;;;;;5003333;28;20361;-66
2023/10/04 08:32:03;;;;;;;11.48;3.60;;;17.20;99.90;;;;;;5014758;28;20479;-66
2023/10/04 08:34:29;;;;;;;11.52;3.78;;;17.30;99.90;;;;;;5012417;28;20033;-66
2023/10/04 08:36:56;;;;;;;12.48;3.63;;;17.30;99.90;;;;;;5004343;28;20542;-67
2023/10/04 08:39:22;;;;;;;8.30;3.30;;;17.30;99.90;;;;;;4998737;28;20423;-67
2023/10/04 08:41:48;;;;;;;12.90;3.20;;;17.30;99.90;;;;;;5008324;28;20034;-66
2023/10/04 08:44:14;;;;;;;11.73;4.30;;;17.30;99.90;;;;;;4997170;28;20037;-67
2023/10/04 08:46:43;;;;;;;15.13;3.65;;;17.30;99.90;;;;;;4994808;28;20459;-66
2023/10/04 08:49:10;;;;;;;11.85;3.67;;;17.40;99.90;;;;;;4994164;28;20022;-66
2023/10/04 08:51:51;;;;;;;9.15;3.33;;;17.40;99.90;;;;;;5017842;28;20475;-66
2023/10/04 08:54:24;;;;;;;16.23;4.10;;;17.40;99.90;;;;;;5000399;28;20034;-67
2023/10/04 08:56:59;;;;;;;11.32;3.30;;;17.40;99.90;;;;;;5005263;28;20073;-66
2023/10/04 08:59:25;;;;;;;13.60;3.53;;;17.50;99.90;;;;;;5019359;28;20026;-66
2023/10/04 09:01:51;;;;;;;9.93;3.10;;;17.40;99.90;;;;;;4999366;28;20443;-67
2023/10/04 09:04:20;;;;;;;10.23;3.05;;;17.50;99.90;;;;;;4997982;28;20034;-67
2023/10/04 09:06:51;;;;;;;12.00;3.85;;;17.50;99.90;;;;;;5011550;28;20117;-66
2023/10/04 09:09:18;;;;;;;11.77;3.50;;;17.50;99.90;;;;;;5003516;28;20018;-70
2023/10/04 09:11:45;;;;;;;9.63;3.72;;;17.50;99.90;;;;;;5002060;28;20034;-67
2023/10/04 09:14:16;;;;;;;16.48;4.28;;;17.50;99.90;;;;;;4994362;28;20030;-66
2023/10/04 09:16:42;;;;;;;13.55;4.30;;;17.50;99.90;;;;;;5003536;28;20023;-66
2023/10/04 09:19:14;;;;;;;11.27;3.70;;;17.60;99.90;;;;;;4994992;28;20093;-67
2023/10/04 09:21:41;;;;;;;10.60;3.55;;;17.60;99.90;;;;;;4999124;28;20520;-67
2023/10/04 09:24:09;;;;;;;10.10;3.42;;;17.60;99.90;;;;;;5001459;28;20361;-67
2023/10/04 09:26:42;;;;;;;9.65;3.15;;;17.70;99.90;;;;;;5013383;28;20495;-68
2023/10/04 09:29:10;;;;;;;11.68;3.67;;;17.70;99.90;;;;;;5000954;28;20033;-67
2023/10/04 09:31:53;;;;;;;14.75;3.50;;;17.70;99.90;;;;;;5011326;28;20030;-67
2023/10/04 09:34:19;;;;;;;11.68;4.07;;;17.70;99.90;;;;;;5001030;28;20022;-67
2023/10/04 09:36:45;;;;;;;7.57;2.78;;;17.80;99.90;;;;;;5001075;28;20080;-67
2023/10/04 09:39:13;;;;;;;11.40;3.55;;;17.80;99.90;;;;;;5008948;28;20033;-66
2023/10/04 09:41:41;;;;;;;11.32;3.88;;;17.80;99.90;;;;;;5007008;28;20034;-66
2023/10/04 09:44:27;;;;;;;13.32;3.95;;;17.80;99.90;;;;;;5010597;28;20025;-66
2023/10/04 09:47:01;;;;;;;9.93;3.55;;;17.90;99.90;;;;;;5011481;28;20483;-67
2023/10/04 09:49:31;;;;;;;11.40;3.50;;;17.80;99.90;;;;;;5013014;28;20044;-67
2023/10/04 09:52:00;;;;;;;9.77;3.47;;;17.90;99.90;;;;;;4998998;28;20022;-66
2023/10/04 09:54:27;;;;;;;8.30;3.17;;;17.90;99.90;;;;;;5008894;28;20026;-68
2023/10/04 09:56:54;;;;;;;8.63;3.33;;;17.90;99.90;;;;;;5010574;28;20029;-67
2023/10/04 09:59:21;;;;;;;15.18;3.80;;;17.90;99.90;;;;;;5012379;28;20041;-68
2023/10/04 10:01:52;;;;;;;9.70;3.25;;;17.90;99.90;;;;;;5001226;28;20030;-67
2023/10/04 10:04:25;;;;;;;13.02;4.60;;;18.00;99.90;;;;;;5001588;28;20084;-67
2023/10/04 10:07:23;;;;;;;11.25;3.70;;;18.00;99.90;;;;;;4993321;28;20121;-65
2023/10/04 10:10:16;;;;;;;10.00;3.58;;;18.00;99.90;;;;;;5005941;28;20021;-68
2023/10/04 10:12:43;;;;;;;7.80;3.55;;;18.00;99.90;;;;;;4992453;28;20022;-67
2023/10/04 10:15:11;;;;;;;9.00;3.78;;;18.10;99.90;;;;;;4996432;28;20034;-67
2023/10/04 10:17:38;;;;;;;14.02;4.18;;;18.10;99.90;;;;;;4994630;28;20022;-66
2023/10/04 10:20:15;;;;;;;10.43;3.55;;;18.10;99.90;;;;;;5005462;28;20052;-66
2023/10/04 10:22:59;;;;;;;11.60;3.95;;;18.10;99.90;;;;;;5000522;28;20033;-67
2023/10/04 10:25:25;;;;;;;13.13;4.93;;;18.20;99.90;;;;;;5001604;28;20164;-67
2023/10/04 10:27:56;;;;;;;14.63;5.55;;;18.20;99.90;;;;;;5015861;28;20026;-67
2023/10/04 10:30:23;;;;;;;18.88;5.97;;;18.20;99.90;;;;;;4997050;28;20502;-66
2023/10/04 10:32:55;;;;;;;16.88;5.63;;;18.20;99.90;;;;;;5005631;28;20014;-67
2023/10/04 10:35:53;;;;;;;16.42;5.15;;;18.20;99.90;;;;;;4999917;28;20041;-68
2023/10/04 10:38:29;;;;;;;15.73;4.93;;;18.30;99.90;;;;;;5003808;28;20030;-67
2023/10/04 10:40:55;;;;;;;16.58;4.45;;;18.30;99.90;;;;;;4997849;28;20350;-67
2023/10/04 10:43:20;;;;;;;12.52;3.80;;;18.30;99.90;;;;;;5008662;28;20595;-67
2023/10/04 10:45:46;;;;;;;11.57;3.70;;;18.30;99.90;;;;;;5003717;28;20513;-67
2023/10/04 10:48:12;;;;;;;13.13;3.95;;;18.40;99.90;;;;;;4995717;28;20105;-68
2023/10/04 10:50:41;;;;;;;11.27;3.40;;;18.40;99.90;;;;;;5000543;28;20034;-69
2023/10/04 10:53:10;;;;;;;10.65;3.70;;;18.40;99.90;;;;;;5000423;28;20018;-69
2023/10/04 10:55:40;;;;;;;12.45;3.85;;;18.40;99.90;;;;;;5009438;28;20025;-68
2023/10/04 10:58:07;;;;;;;13.85;3.78;;;18.40;99.90;;;;;;5005398;28;20368;-68
2023/10/04 11:00:35;;;;;;;11.98;3.88;;;18.40;99.90;;;;;;4999812;28;20026;-68
2023/10/04 11:03:04;;;;;;;11.30;3.60;;;18.40;99.90;;;;;;5006468;28;20034;-65
2023/10/04 11:05:30;;;;;;;11.25;3.40;;;18.40;99.90;;;;;;5002696;28;20033;-66
2023/10/04 11:07:57;;;;;;;15.20;3.92;;;18.40;99.90;;;;;;5009749;28;20038;-66
2023/10/04 11:10:25;;;;;;;18.15;3.97;;;18.50;99.90;;;;;;5008494;28;20105;-68
2023/10/04 11:12:54;;;;;;;12.48;3.83;;;18.50;99.90;;;;;;5005965;28;20429;-68
2023/10/04 11:15:27;;;;;;;12.43;2.85;;;18.50;99.90;;;;;;5001027;28;20319;-70
2023/10/04 11:17:54;;;;;;;13.52;3.35;;;18.60;99.90;;;;;;5010159;28;20060;-67
2023/10/04 11:20:21;;;;;;;17.08;3.75;;;18.60;99.90;;;;;;5007396;28;20034;-68
2023/10/04 11:22:51;;;;;;;10.63;3.80;;;18.60;99.90;;;;;;5006729;28;20022;-66
2023/10/04 11:25:18;;;;;;;18.45;3.65;;;18.60;99.90;;;;;;5008885;28;20595;-66
2023/10/04 11:27:47;;;;;;;20.13;4.72;;;18.60;99.90;;;;;;5004974;28;20049;-70
2023/10/04 11:30:14;;;;;;;13.05;3.70;;;18.80;99.90;;;;;;5001801;28;20034;-65
2023/10/04 11:32:47;;;;;;;10.25;3.35;;;18.70;99.90;;;;;;5002258;28;20022;-65
2023/10/04 11:35:17;;;;;;;10.82;3.47;;;18.80;99.90;;;;;;5008853;28;20495;-63
2023/10/04 11:37:43;;;;;;;10.90;3.50;;;18.80;99.90;;;;;;5004881;28;20038;-64
2023/10/04 11:40:13;;;;;;;12.07;3.50;;;18.80;99.90;;;;;;4999833;28;20034;-65
2023/10/04 11:42:43;;;;;;;12.88;3.03;;;18.80;99.90;;;;;;4998844;28;20030;-64
2023/10/04 11:45:26;;;;;;;12.32;3.58;;;18.80;99.90;;;;;;5005959;28;20053;-64
2023/10/04 11:48:07;;;;;;;9.57;2.95;;;18.80;99.90;;;;;;5004849;28;20491;-64
2023/10/04 11:50:50;;;;;;;7.95;3.13;;;18.80;99.90;;;;;;5004590;28;20030;-64
2023/10/04 11:53:42;;;;;;;8.32;2.58;;;18.90;99.90;;;;;;5012237;28;20029;-65
2023/10/04 11:56:10;;;;;;;7.03;2.37;;;18.90;99.90;;;;;;5010986;28;20022;-72
2023/10/04 11:59:02;;;;;;;10.80;2.45;;;18.90;99.90;;;;;;5007743;28;20029;-65
2023/10/04 12:01:28;;;;;;;9.40;2.70;;;18.90;99.90;;;;;;5011966;28;20609;-68
2023/10/04 12:03:55;;;;;;;8.07;2.60;;;18.90;99.80;;;;;;5014167;28;20022;-66
2023/10/04 12:06:33;;;;;;;9.63;2.80;;;18.90;99.40;;;;;;5008725;28;20104;-66
2023/10/04 12:08:58;;;;;;;10.02;2.13;;;18.90;99.40;;;;;;5011429;28;20029;-68
2023/10/04 12:11:25;;;;;;;8.10;2.10;;;18.90;99.30;;;;;;5008419;28;20030;-66
2023/10/04 12:13:52;;;;;;;8.27;2.60;;;18.90;98.90;;;;;;5007639;28;20018;-66
2023/10/04 12:16:18;;;;;;;7.50;2.67;;;18.90;99.00;;;;;;5014888;28;20091;-66
2023/10/04 12:18:45;;;;;;;10.07;2.40;;;18.90;99.00;;;;;;5005816;28;20042;-68
2023/10/04 12:21:12;;;;;;;8.95;2.55;;;19.00;98.70;;;;;;5007843;28;20030;-66
2023/10/04 12:23:38;;;;;;;7.47;2.17;;;18.90;98.30;;;;;;5007070;28;20072;-65
2023/10/04 12:26:04;;;;;;;8.27;2.67;;;19.00;98.10;;;;;;5007042;28;20415;-66
2023/10/04 12:28:30;;;;;;;12.98;2.83;;;19.00;98.30;;;;;;5000340;28;20034;-71
2023/10/04 12:31:07;;;;;;;9.10;2.25;;;19.00;98.30;;;;;;5010273;28;20098;-66
2023/10/04 12:33:36;;;;;;;8.15;2.08;;;19.00;98.40;;;;;;5004524;28;20677;-66
2023/10/04 12:36:04;;;;;;;8.25;2.10;;;19.00;98.20;;;;;;5014844;28;20088;-66
2023/10/04 12:38:30;;;;;;;9.77;2.38;;;19.10;98.20;;;;;;5014690;28;20026;-67
2023/10/04 12:40:56;;;;;;;10.70;2.63;;;19.10;98.10;;;;;;4995197;28;20046;-66
2023/10/04 12:43:24;;;;;;;6.20;2.00;;;19.10;98.70;;;;;;5012300;28;20022;-66
2023/10/04 12:45:53;;;;;;;7.18;2.08;;;19.10;98.80;;;;;;5013565;28;20104;-66
2023/10/04 12:48:23;;;;;;;8.77;2.63;;;19.10;99.00;;;;;;5008486;28;20022;-66
2023/10/04 12:50:49;;;;;;;5.53;2.28;;;19.10;99.30;;;;;;4994883;28;20042;-66
2023/10/04 12:53:16;;;;;;;7.63;2.13;;;19.10;99.50;;;;;;5012592;28;20494;-66
2023/10/04 12:55:47;;;;;;;9.35;2.20;;;19.20;98.90;;;;;;5000580;28;20107;-67
2023/10/04 12:58:13;;;;;;;10.25;1.90;;;19.20;98.60;;;;;;5002589;28;20030;-66